sensor_id;sensor_type;location;lat;lon;timestamp;pressure;altitude;pressure_sealevel;temperature;humidity
71109;BME280;59614;51.012;-1.648;2023-06-24T00:00:56;101614.34;;;18.00;89.99
71109;BME280;59614;51.012;-1.648;2023-06-24T00:03:21;101607.09;;;18.03;89.27
71109;BME280;59614;51.012;-1.648;2023-06-24T00:05:46;101604.56;;;17.99;90.29
71109;BME280;59614;51.012;-1.648;2023-06-24T00:08:18;101604.47;;;18.02;90.99
71109;BME280;59614;51.012;-1.648;2023-06-24T00:10:45;101609.81;;;18.02;89.79
71109;BME280;59614;51.012;-1.648;2023-06-24T00:13:12;101598.88;;;18.11;89.77
71109;BME280;59614;51.012;-1.648;2023-06-24T00:15:37;101604.56;;;17.99;90.90
71109;BME280;59614;51.012;-1.648;2023-06-24T00:18:08;101594.44;;;18.10;90.31
71109;BME280;59614;51.012;-1.648;2023-06-24T00:20:33;101584.59;;;18.12;89.70
71109;BME280;59614;51.012;-1.648;2023-06-24T00:22:58;101589.16;;;18.09;90.27
71109;BME280;59614;51.012;-1.648;2023-06-24T00:25:24;101591.00;;;18.06;90.07
71109;BME280;59614;51.012;-1.648;2023-06-24T00:27:49;101592.09;;;17.99;90.32
71109;BME280;59614;51.012;-1.648;2023-06-24T00:30:15;101584.69;;;18.09;89.76
71109;BME280;59614;51.012;-1.648;2023-06-24T00:32:40;101589.19;;;18.07;90.38
71109;BME280;59614;51.012;-1.648;2023-06-24T00:35:05;101585.13;;;17.92;91.37
71109;BME280;59614;51.012;-1.648;2023-06-24T00:37:31;101585.09;;;17.94;90.51
71109;BME280;59614;51.012;-1.648;2023-06-24T00:39:58;101579.75;;;17.94;90.37
71109;BME280;59614;51.012;-1.648;2023-06-24T00:42:23;101586.03;;;17.93;90.05
71109;BME280;59614;51.012;-1.648;2023-06-24T00:44:49;101591.31;;;17.94;89.81
71109;BME280;59614;51.012;-1.648;2023-06-24T00:47:15;101588.81;;;17.88;89.84
71109;BME280;59614;51.012;-1.648;2023-06-24T00:49:40;101584.09;;;17.99;89.91
71109;BME280;59614;51.012;-1.648;2023-06-24T00:52:11;101578.00;;;17.93;89.58
71109;BME280;59614;51.012;-1.648;2023-06-24T00:54:42;101573.63;;;17.90;90.23
71109;BME280;59614;51.012;-1.648;2023-06-24T00:57:07;101576.25;;;17.91;89.94
71109;BME280;59614;51.012;-1.648;2023-06-24T00:59:34;101576.53;;;17.82;89.63
71109;BME280;59614;51.012;-1.648;2023-06-24T01:02:00;101568.78;;;17.73;89.80
71109;BME280;59614;51.012;-1.648;2023-06-24T01:04:27;101570.69;;;17.68;91.45
71109;BME280;59614;51.012;-1.648;2023-06-24T01:06:53;101568.88;;;17.68;91.32
71109;BME280;59614;51.012;-1.648;2023-06-24T01:09:18;101566.91;;;17.77;90.51
71109;BME280;59614;51.012;-1.648;2023-06-24T01:11:44;101580.38;;;17.72;92.15
71109;BME280;59614;51.012;-1.648;2023-06-24T01:14:09;101579.41;;;17.74;91.82
71109;BME280;59614;51.012;-1.648;2023-06-24T01:16:55;101578.16;;;17.86;91.29
71109;BME280;59614;51.012;-1.648;2023-06-24T01:33:19;101577.34;;;18.17;92.14
71109;BME280;59614;51.012;-1.648;2023-06-24T01:35:48;101584.09;;;18.29;92.02
71109;BME280;59614;51.012;-1.648;2023-06-24T01:38:24;101573.03;;;18.42;91.56
71109;BME280;59614;51.012;-1.648;2023-06-24T01:40:52;101573.72;;;18.48;90.98
71109;BME280;59614;51.012;-1.648;2023-06-24T01:43:19;101564.13;;;18.41;91.78
71109;BME280;59614;51.012;-1.648;2023-06-24T01:45:50;101569.97;;;18.54;91.55
71109;BME280;59614;51.012;-1.648;2023-06-24T01:48:24;101566.94;;;18.36;91.85
71109;BME280;59614;51.012;-1.648;2023-06-24T01:51:00;101568.22;;;18.53;92.05
71109;BME280;59614;51.012;-1.648;2023-06-24T01:53:33;101567.47;;;18.48;92.21
71109;BME280;59614;51.012;-1.648;2023-06-24T01:56:00;101569.53;;;18.40;92.98
71109;BME280;59614;51.012;-1.648;2023-06-24T01:58:27;101579.22;;;18.44;92.63
71109;BME280;59614;51.012;-1.648;2023-06-24T02:00:54;101565.09;;;18.39;92.59
71109;BME280;59614;51.012;-1.648;2023-06-24T02:03:21;101569.59;;;18.36;92.59
71109;BME280;59614;51.012;-1.648;2023-06-24T02:05:47;101573.94;;;18.41;92.21
71109;BME280;59614;51.012;-1.648;2023-06-24T02:08:14;101569.19;;;18.50;91.91
71109;BME280;59614;51.012;-1.648;2023-06-24T02:10:42;101569.22;;;18.49;91.67
71109;BME280;59614;51.012;-1.648;2023-06-24T02:13:09;101574.81;;;18.41;91.70
71109;BME280;59614;51.012;-1.648;2023-06-24T02:15:38;101568.66;;;18.39;92.91
71109;BME280;59614;51.012;-1.648;2023-06-24T02:18:05;101569.47;;;18.41;92.95
71109;BME280;59614;51.012;-1.648;2023-06-24T02:20:32;101567.63;;;18.43;92.00
71109;BME280;59614;51.012;-1.648;2023-06-24T02:22:58;101565.41;;;18.58;91.72
71109;BME280;59614;51.012;-1.648;2023-06-24T02:25:25;101561.22;;;18.49;91.27
71109;BME280;59614;51.012;-1.648;2023-06-24T02:27:53;101566.22;;;18.60;91.14
71109;BME280;59614;51.012;-1.648;2023-06-24T02:30:21;101565.63;;;18.50;92.19
71109;BME280;59614;51.012;-1.648;2023-06-24T02:32:47;101566.63;;;18.47;92.48
71109;BME280;59614;51.012;-1.648;2023-06-24T02:35:12;101569.88;;;18.57;91.48
71109;BME280;59614;51.012;-1.648;2023-06-24T02:37:38;101566.38;;;18.55;92.27
71109;BME280;59614;51.012;-1.648;2023-06-24T02:40:04;101566.56;;;18.49;92.59
71109;BME280;59614;51.012;-1.648;2023-06-24T02:42:31;101569.88;;;18.29;92.91
71109;BME280;59614;51.012;-1.648;2023-06-24T02:44:56;101574.56;;;18.49;92.93
71109;BME280;59614;51.012;-1.648;2023-06-24T02:47:22;101566.31;;;18.57;92.49
71109;BME280;59614;51.012;-1.648;2023-06-24T02:49:49;101556.09;;;18.70;91.44
71109;BME280;59614;51.012;-1.648;2023-06-24T02:52:16;101558.16;;;18.61;92.09
71109;BME280;59614;51.012;-1.648;2023-06-24T02:54:43;101556.59;;;18.54;92.16
71109;BME280;59614;51.012;-1.648;2023-06-24T02:57:09;101558.88;;;18.66;92.52
71109;BME280;59614;51.012;-1.648;2023-06-24T02:59:36;101553.16;;;18.79;91.56
71109;BME280;59614;51.012;-1.648;2023-06-24T03:02:02;101558.16;;;18.61;92.21
71109;BME280;59614;51.012;-1.648;2023-06-24T03:04:29;101555.56;;;18.58;91.98
71109;BME280;59614;51.012;-1.648;2023-06-24T03:06:55;101552.22;;;18.80;91.92
71109;BME280;59614;51.012;-1.648;2023-06-24T03:09:21;101558.59;;;18.76;91.46
71109;BME280;59614;51.012;-1.648;2023-06-24T03:11:48;101556.38;;;18.62;92.64
71109;BME280;59614;51.012;-1.648;2023-06-24T03:14:13;101554.63;;;18.59;91.81
71109;BME280;59614;51.012;-1.648;2023-06-24T03:16:39;101553.34;;;18.44;92.97
71109;BME280;59614;51.012;-1.648;2023-06-24T03:19:05;101547.44;;;18.61;92.35
71109;BME280;59614;51.012;-1.648;2023-06-24T03:21:30;101549.81;;;18.44;92.70
71109;BME280;59614;51.012;-1.648;2023-06-24T03:23:56;101548.59;;;18.54;91.69
71109;BME280;59614;51.012;-1.648;2023-06-24T03:26:23;101550.22;;;18.58;91.26
71109;BME280;59614;51.012;-1.648;2023-06-24T03:28:48;101545.47;;;18.40;92.08
71109;BME280;59614;51.012;-1.648;2023-06-24T03:31:14;101552.34;;;18.47;91.83
71109;BME280;59614;51.012;-1.648;2023-06-24T03:33:42;101554.22;;;18.45;91.41
71109;BME280;59614;51.012;-1.648;2023-06-24T03:36:11;101559.94;;;18.32;91.40
71109;BME280;59614;51.012;-1.648;2023-06-24T03:38:38;101548.66;;;18.23;92.81
71109;BME280;59614;51.012;-1.648;2023-06-24T03:41:03;101545.53;;;18.08;92.72
71109;BME280;59614;51.012;-1.648;2023-06-24T03:43:28;101548.31;;;18.05;92.33
71109;BME280;59614;51.012;-1.648;2023-06-24T03:45:54;101543.91;;;18.02;92.60
71109;BME280;59614;51.012;-1.648;2023-06-24T03:48:20;101537.66;;;18.03;91.85
71109;BME280;59614;51.012;-1.648;2023-06-24T03:50:45;101545.81;;;17.99;91.75
71109;BME280;59614;51.012;-1.648;2023-06-24T03:53:11;101554.56;;;18.04;91.73
71109;BME280;59614;51.012;-1.648;2023-06-24T03:55:36;101548.00;;;17.84;91.83
71109;BME280;59614;51.012;-1.648;2023-06-24T03:58:01;101544.97;;;17.95;91.88
71109;BME280;59614;51.012;-1.648;2023-06-24T04:00:27;101543.50;;;17.85;91.81
71109;BME280;59614;51.012;-1.648;2023-06-24T04:02:52;101544.38;;;17.85;92.05
71109;BME280;59614;51.012;-1.648;2023-06-24T04:05:19;101545.34;;;17.83;92.74
71109;BME280;59614;51.012;-1.648;2023-06-24T04:07:45;101550.53;;;17.89;92.58
71109;BME280;59614;51.012;-1.648;2023-06-24T04:10:12;101558.66;;;17.84;92.24
71109;BME280;59614;51.012;-1.648;2023-06-24T04:12:38;101555.06;;;17.54;94.65
71109;BME280;59614;51.012;-1.648;2023-06-24T04:15:04;101560.78;;;17.71;95.19
71109;BME280;59614;51.012;-1.648;2023-06-24T04:17:30;101559.44;;;17.88;93.18
71109;BME280;59614;51.012;-1.648;2023-06-24T04:19:56;101566.78;;;17.80;92.95
71109;BME280;59614;51.012;-1.648;2023-06-24T04:22:21;101554.72;;;17.66;94.11
71109;BME280;59614;51.012;-1.648;2023-06-24T04:24:47;101559.88;;;17.72;95.13
71109;BME280;59614;51.012;-1.648;2023-06-24T04:27:12;101550.03;;;17.74;96.71
71109;BME280;59614;51.012;-1.648;2023-06-24T04:29:38;101562.75;;;17.65;96.33
71109;BME280;59614;51.012;-1.648;2023-06-24T04:32:03;101558.19;;;17.68;96.87
71109;BME280;59614;51.012;-1.648;2023-06-24T04:34:29;101561.19;;;17.89;94.77
71109;BME280;59614;51.012;-1.648;2023-06-24T04:36:54;101558.97;;;17.73;96.40
71109;BME280;59614;51.012;-1.648;2023-06-24T04:39:20;101556.59;;;17.94;95.54
71109;BME280;59614;51.012;-1.648;2023-06-24T04:41:45;101560.19;;;17.62;97.00
71109;BME280;59614;51.012;-1.648;2023-06-24T04:44:12;101565.84;;;17.82;98.15
71109;BME280;59614;51.012;-1.648;2023-06-24T04:46:37;101561.59;;;18.36;95.92
71109;BME280;59614;51.012;-1.648;2023-06-24T04:49:03;101566.31;;;18.57;93.44
71109;BME280;59614;51.012;-1.648;2023-06-24T04:51:28;101561.69;;;18.33;94.10
71109;BME280;59614;51.012;-1.648;2023-06-24T04:53:53;101562.78;;;18.26;93.29
71109;BME280;59614;51.012;-1.648;2023-06-24T04:56:20;101561.59;;;18.06;95.20
71109;BME280;59614;51.012;-1.648;2023-06-24T04:58:46;101556.91;;;18.15;94.93
71109;BME280;59614;51.012;-1.648;2023-06-24T05:01:11;101558.72;;;18.14;95.62
71109;BME280;59614;51.012;-1.648;2023-06-24T05:03:37;101561.59;;;18.36;94.62
71109;BME280;59614;51.012;-1.648;2023-06-24T05:06:02;101564.25;;;18.36;95.73
71109;BME280;59614;51.012;-1.648;2023-06-24T05:08:27;101564.00;;;18.74;93.88
71109;BME280;59614;51.012;-1.648;2023-06-24T05:10:53;101561.69;;;18.90;91.93
71109;BME280;59614;51.012;-1.648;2023-06-24T05:13:18;101567.00;;;18.63;93.52
71109;BME280;59614;51.012;-1.648;2023-06-24T05:15:43;101564.94;;;19.00;92.72
71109;BME280;59614;51.012;-1.648;2023-06-24T05:18:09;101560.66;;;19.21;91.23
71109;BME280;59614;51.012;-1.648;2023-06-24T05:20:34;101558.28;;;18.85;91.32
71109;BME280;59614;51.012;-1.648;2023-06-24T05:23:00;101562.63;;;18.89;92.92
71109;BME280;59614;51.012;-1.648;2023-06-24T05:25:25;101563.66;;;18.57;94.99
71109;BME280;59614;51.012;-1.648;2023-06-24T05:27:50;101570.13;;;18.76;93.82
71109;BME280;59614;51.012;-1.648;2023-06-24T05:30:16;101560.72;;;18.64;94.05
71109;BME280;59614;51.012;-1.648;2023-06-24T05:32:41;101562.25;;;18.73;94.05
71109;BME280;59614;51.012;-1.648;2023-06-24T05:35:07;101558.09;;;18.91;94.27
71109;BME280;59614;51.012;-1.648;2023-06-24T05:37:32;101569.72;;;18.33;95.69
71109;BME280;59614;51.012;-1.648;2023-06-24T05:39:57;101571.28;;;18.69;95.26
71109;BME280;59614;51.012;-1.648;2023-06-24T05:42:26;101572.28;;;18.93;94.18
71109;BME280;59614;51.012;-1.648;2023-06-24T05:44:51;101570.44;;;18.95;94.44
71109;BME280;59614;51.012;-1.648;2023-06-24T05:47:17;101569.38;;;18.73;93.73
71109;BME280;59614;51.012;-1.648;2023-06-24T05:49:42;101569.56;;;18.38;96.96
71109;BME280;59614;51.012;-1.648;2023-06-24T05:52:07;101570.41;;;18.68;96.37
71109;BME280;59614;51.012;-1.648;2023-06-24T05:54:33;101568.16;;;18.83;93.49
71109;BME280;59614;51.012;-1.648;2023-06-24T05:56:58;101573.03;;;18.98;93.31
71109;BME280;59614;51.012;-1.648;2023-06-24T05:59:24;101574.28;;;19.40;92.17
71109;BME280;59614;51.012;-1.648;2023-06-24T06:01:49;101577.06;;;18.83;93.16
71109;BME280;59614;51.012;-1.648;2023-06-24T06:04:14;101577.47;;;19.00;93.71
71109;BME280;59614;51.012;-1.648;2023-06-24T06:06:40;101577.84;;;18.87;93.37
71109;BME280;59614;51.012;-1.648;2023-06-24T06:09:06;101572.22;;;19.23;92.89
71109;BME280;59614;51.012;-1.648;2023-06-24T06:11:31;101569.63;;;19.45;92.33
71109;BME280;59614;51.012;-1.648;2023-06-24T06:13:57;101567.22;;;19.38;91.70
71109;BME280;59614;51.012;-1.648;2023-06-24T06:16:22;101568.75;;;19.70;91.72
71109;BME280;59614;51.012;-1.648;2023-06-24T06:18:48;101569.41;;;19.77;90.11
71109;BME280;59614;51.012;-1.648;2023-06-24T06:21:14;101570.44;;;20.22;88.43
71109;BME280;59614;51.012;-1.648;2023-06-24T06:23:39;101573.53;;;20.11;87.21
71109;BME280;59614;51.012;-1.648;2023-06-24T06:26:05;101566.94;;;19.71;89.65
71109;BME280;59614;51.012;-1.648;2023-06-24T06:28:30;101569.31;;;19.29;92.72
71109;BME280;59614;51.012;-1.648;2023-06-24T06:30:56;101569.25;;;19.82;92.51
71109;BME280;59614;51.012;-1.648;2023-06-24T06:33:22;101576.56;;;20.26;88.99
71109;BME280;59614;51.012;-1.648;2023-06-24T06:35:47;101568.41;;;20.05;88.69
71109;BME280;59614;51.012;-1.648;2023-06-24T06:38:13;101574.88;;;19.74;90.62
71109;BME280;59614;51.012;-1.648;2023-06-24T06:40:38;101578.72;;;19.92;88.85
71109;BME280;59614;51.012;-1.648;2023-06-24T06:43:03;101574.19;;;19.94;90.43
71109;BME280;59614;51.012;-1.648;2023-06-24T06:45:29;101572.34;;;19.95;88.77
71109;BME280;59614;51.012;-1.648;2023-06-24T06:47:54;101574.47;;;20.56;87.53
71109;BME280;59614;51.012;-1.648;2023-06-24T06:50:20;101569.69;;;20.87;85.29
71109;BME280;59614;51.012;-1.648;2023-06-24T06:52:45;101579.59;;;19.93;87.96
71109;BME280;59614;51.012;-1.648;2023-06-24T06:55:10;101586.22;;;20.06;89.08
71109;BME280;59614;51.012;-1.648;2023-06-24T06:57:36;101584.50;;;20.73;86.71
71109;BME280;59614;51.012;-1.648;2023-06-24T07:00:01;101588.19;;;20.48;85.79
71109;BME280;59614;51.012;-1.648;2023-06-24T07:02:27;101578.06;;;21.01;85.70
71109;BME280;59614;51.012;-1.648;2023-06-24T07:04:52;101589.94;;;20.72;85.42
71109;BME280;59614;51.012;-1.648;2023-06-24T07:07:18;101589.91;;;20.95;86.30
71109;BME280;59614;51.012;-1.648;2023-06-24T07:09:43;101582.91;;;21.34;83.83
71109;BME280;59614;51.012;-1.648;2023-06-24T07:12:09;101588.06;;;20.51;85.90
71109;BME280;59614;51.012;-1.648;2023-06-24T07:14:34;101584.94;;;20.86;86.92
71109;BME280;59614;51.012;-1.648;2023-06-24T07:17:00;101584.91;;;21.29;83.99
71109;BME280;59614;51.012;-1.648;2023-06-24T07:19:25;101582.53;;;21.64;83.05
71109;BME280;59614;51.012;-1.648;2023-06-24T07:21:51;101584.25;;;21.86;81.34
71109;BME280;59614;51.012;-1.648;2023-06-24T07:24:17;101574.34;;;21.67;84.04
71109;BME280;59614;51.012;-1.648;2023-06-24T07:26:42;101573.31;;;23.04;78.96
71109;BME280;59614;51.012;-1.648;2023-06-24T07:29:08;101576.28;;;23.85;74.36
71109;BME280;59614;51.012;-1.648;2023-06-24T07:31:34;101579.53;;;22.50;76.76
71109;BME280;59614;51.012;-1.648;2023-06-24T07:34:00;101590.53;;;22.05;77.31
71109;BME280;59614;51.012;-1.648;2023-06-24T07:36:25;101592.19;;;21.27;80.97
71109;BME280;59614;51.012;-1.648;2023-06-24T07:38:50;101590.38;;;22.09;79.93
71109;BME280;59614;51.012;-1.648;2023-06-24T07:41:16;101593.72;;;22.90;77.21
71109;BME280;59614;51.012;-1.648;2023-06-24T07:43:41;101592.00;;;24.11;74.45
71109;BME280;59614;51.012;-1.648;2023-06-24T07:46:06;101587.72;;;23.73;72.71
71109;BME280;59614;51.012;-1.648;2023-06-24T07:48:32;101585.25;;;24.19;71.93
71109;BME280;59614;51.012;-1.648;2023-06-24T07:50:57;101586.13;;;24.36;70.00
71109;BME280;59614;51.012;-1.648;2023-06-24T07:53:23;101599.94;;;23.63;72.19
71109;BME280;59614;51.012;-1.648;2023-06-24T07:55:48;101599.66;;;24.02;70.25
71109;BME280;59614;51.012;-1.648;2023-06-24T07:58:14;101593.44;;;25.12;67.49
71109;BME280;59614;51.012;-1.648;2023-06-24T08:00:39;101599.34;;;24.57;69.16
71109;BME280;59614;51.012;-1.648;2023-06-24T08:03:05;101592.16;;;24.73;69.10
71109;BME280;59614;51.012;-1.648;2023-06-24T08:05:30;101591.19;;;24.42;68.83
71109;BME280;59614;51.012;-1.648;2023-06-24T08:07:55;101600.75;;;25.26;67.39
71109;BME280;59614;51.012;-1.648;2023-06-24T08:10:21;101585.72;;;25.96;65.97
71109;BME280;59614;51.012;-1.648;2023-06-24T08:12:46;101594.28;;;25.29;65.90
71109;BME280;59614;51.012;-1.648;2023-06-24T08:15:13;101588.84;;;25.45;65.13
71109;BME280;59614;51.012;-1.648;2023-06-24T08:17:38;101588.22;;;25.70;67.00
71109;BME280;59614;51.012;-1.648;2023-06-24T08:20:04;101587.63;;;25.80;64.48
71109;BME280;59614;51.012;-1.648;2023-06-24T08:22:30;101594.63;;;24.44;67.69
71109;BME280;59614;51.012;-1.648;2023-06-24T08:24:55;101584.56;;;24.48;68.76
71109;BME280;59614;51.012;-1.648;2023-06-24T08:27:21;101575.06;;;25.50;65.86
71109;BME280;59614;51.012;-1.648;2023-06-24T08:29:46;101578.81;;;25.47;64.21
71109;BME280;59614;51.012;-1.648;2023-06-24T08:32:12;101574.09;;;25.51;65.12
71109;BME280;59614;51.012;-1.648;2023-06-24T08:34:37;101578.16;;;25.72;66.03
71109;BME280;59614;51.012;-1.648;2023-06-24T08:37:03;101578.16;;;25.72;63.61
71109;BME280;59614;51.012;-1.648;2023-06-24T08:39:28;101579.94;;;25.88;64.56
71109;BME280;59614;51.012;-1.648;2023-06-24T08:41:53;101572.84;;;25.85;63.85
71109;BME280;59614;51.012;-1.648;2023-06-24T08:44:19;101571.72;;;25.30;64.15
71109;BME280;59614;51.012;-1.648;2023-06-24T08:46:44;101575.81;;;24.91;66.75
71109;BME280;59614;51.012;-1.648;2023-06-24T08:49:27;101563.78;;;25.27;64.90
71109;BME280;59614;51.012;-1.648;2023-06-24T08:52:03;101565.13;;;25.20;65.41
71109;BME280;59614;51.012;-1.648;2023-06-24T08:54:30;101567.44;;;25.26;66.26
71109;BME280;59614;51.012;-1.648;2023-06-24T08:56:58;101569.19;;;26.57;61.78
71109;BME280;59614;51.012;-1.648;2023-06-24T08:59:26;101573.88;;;26.55;62.61
71109;BME280;59614;51.012;-1.648;2023-06-24T09:01:52;101567.16;;;26.19;62.44
71109;BME280;59614;51.012;-1.648;2023-06-24T09:04:17;101560.88;;;26.04;62.61
71109;BME280;59614;51.012;-1.648;2023-06-24T09:06:42;101562.72;;;25.60;64.43
71109;BME280;59614;51.012;-1.648;2023-06-24T09:09:21;101568.59;;;25.96;64.77
71109;BME280;59614;51.012;-1.648;2023-06-24T09:11:55;101565.44;;;25.74;65.83
71109;BME280;59614;51.012;-1.648;2023-06-24T09:14:21;101562.53;;;25.78;64.46
71109;BME280;59614;51.012;-1.648;2023-06-24T09:17:07;101568.34;;;26.84;62.19
71109;BME280;59614;51.012;-1.648;2023-06-24T09:19:34;101560.09;;;27.13;60.08
71109;BME280;59614;51.012;-1.648;2023-06-24T09:22:09;101559.03;;;26.33;62.26
71109;BME280;59614;51.012;-1.648;2023-06-24T09:24:41;101556.72;;;25.69;65.13
71109;BME280;59614;51.012;-1.648;2023-06-24T09:27:07;101554.56;;;27.02;64.07
71109;BME280;59614;51.012;-1.648;2023-06-24T09:29:34;101566.84;;;27.33;60.47
71109;BME280;59614;51.012;-1.648;2023-06-24T09:32:04;101549.06;;;27.94;58.34
71109;BME280;59614;51.012;-1.648;2023-06-24T09:34:30;101552.47;;;29.07;57.16
71109;BME280;59614;51.012;-1.648;2023-06-24T09:36:57;101554.31;;;28.58;55.39
71109;BME280;59614;51.012;-1.648;2023-06-24T09:39:23;101555.25;;;28.94;56.03
71109;BME280;59614;51.012;-1.648;2023-06-24T09:41:58;101549.91;;;27.42;57.91
71109;BME280;59614;51.012;-1.648;2023-06-24T09:44:25;101539.00;;;27.83;56.57
71109;BME280;59614;51.012;-1.648;2023-06-24T09:46:51;101542.75;;;28.80;53.84
71109;BME280;59614;51.012;-1.648;2023-06-24T09:49:17;101541.38;;;28.38;53.57
71109;BME280;59614;51.012;-1.648;2023-06-24T09:51:56;101542.75;;;27.28;58.95
71109;BME280;59614;51.012;-1.648;2023-06-24T09:54:28;101534.41;;;26.51;59.57
71109;BME280;59614;51.012;-1.648;2023-06-24T09:56:54;101529.09;;;25.79;63.18
71109;BME280;59614;51.012;-1.648;2023-06-24T09:59:23;101526.72;;;27.25;60.64
71109;BME280;59614;51.012;-1.648;2023-06-24T10:01:52;101512.88;;;28.80;55.51
71109;BME280;59614;51.012;-1.648;2023-06-24T10:04:20;101511.69;;;29.54;54.39
71109;BME280;59614;51.012;-1.648;2023-06-24T10:06:47;101516.75;;;29.82;53.63
71109;BME280;59614;51.012;-1.648;2023-06-24T10:09:13;101521.00;;;29.27;51.92
71109;BME280;59614;51.012;-1.648;2023-06-24T10:11:42;101506.59;;;28.91;53.92
71109;BME280;59614;51.012;-1.648;2023-06-24T10:14:08;101511.50;;;30.24;52.10
71109;BME280;59614;51.012;-1.648;2023-06-24T10:16:33;101506.69;;;28.54;54.35
71109;BME280;59614;51.012;-1.648;2023-06-24T10:19:02;101505.97;;;28.02;56.38
71109;BME280;59614;51.012;-1.648;2023-06-24T10:21:51;101504.56;;;28.09;55.09
71109;BME280;59614;51.012;-1.648;2023-06-24T10:24:34;101504.53;;;27.46;56.84
71109;BME280;59614;51.012;-1.648;2023-06-24T10:27:07;101499.81;;;26.96;59.34
71109;BME280;59614;51.012;-1.648;2023-06-24T10:29:34;101506.88;;;26.17;61.74
71109;BME280;59614;51.012;-1.648;2023-06-24T10:32:01;101509.09;;;26.25;62.56
71109;BME280;59614;51.012;-1.648;2023-06-24T10:37:05;101511.75;;;26.39;60.88
71109;BME280;59614;51.012;-1.648;2023-06-24T10:42:44;101512.94;;;26.75;60.28
71109;BME280;59614;51.012;-1.648;2023-06-24T10:50:07;101484.06;;;27.92;58.16
71109;BME280;59614;51.012;-1.648;2023-06-24T10:52:37;101477.38;;;28.46;56.63
71109;BME280;59614;51.012;-1.648;2023-06-24T10:55:03;101477.78;;;28.53;57.00
71109;BME280;59614;51.012;-1.648;2023-06-24T10:57:28;101469.88;;;29.67;55.24
71109;BME280;59614;51.012;-1.648;2023-06-24T10:59:55;101470.91;;;30.21;52.35
71109;BME280;59614;51.012;-1.648;2023-06-24T11:02:26;101468.25;;;30.75;53.28
71109;BME280;59614;51.012;-1.648;2023-06-24T11:04:52;101463.25;;;31.22;52.03
71109;BME280;59614;51.012;-1.648;2023-06-24T11:07:19;101465.72;;;31.04;49.25
71109;BME280;59614;51.012;-1.648;2023-06-24T11:09:52;101459.69;;;30.47;48.73
71109;BME280;59614;51.012;-1.648;2023-06-24T11:12:18;101455.88;;;31.34;47.71
71109;BME280;59614;51.012;-1.648;2023-06-24T11:14:44;101461.47;;;30.37;51.05
71109;BME280;59614;51.012;-1.648;2023-06-24T11:17:10;101463.63;;;30.22;49.80
71109;BME280;59614;51.012;-1.648;2023-06-24T11:19:35;101455.09;;;31.22;50.25
71109;BME280;59614;51.012;-1.648;2023-06-24T11:22:05;101456.09;;;30.79;50.32
71109;BME280;59614;51.012;-1.648;2023-06-24T11:24:30;101449.28;;;30.19;50.96
71109;BME280;59614;51.012;-1.648;2023-06-24T11:26:56;101453.84;;;30.84;49.96
71109;BME280;59614;51.012;-1.648;2023-06-24T11:29:22;101450.69;;;31.31;47.90
71109;BME280;59614;51.012;-1.648;2023-06-24T11:31:49;101441.84;;;31.49;48.04
71109;BME280;59614;51.012;-1.648;2023-06-24T11:34:14;101446.19;;;31.51;47.50
71109;BME280;59614;51.012;-1.648;2023-06-24T11:36:40;101450.03;;;31.80;46.65
71109;BME280;59614;51.012;-1.648;2023-06-24T11:39:05;101445.19;;;31.21;48.65
71109;BME280;59614;51.012;-1.648;2023-06-24T11:41:31;101446.25;;;32.41;46.24
71109;BME280;59614;51.012;-1.648;2023-06-24T11:43:59;101442.47;;;32.23;46.84
71109;BME280;59614;51.012;-1.648;2023-06-24T11:46:28;101442.13;;;31.15;47.74
71109;BME280;59614;51.012;-1.648;2023-06-24T11:49:07;101450.50;;;30.59;50.17
71109;BME280;59614;51.012;-1.648;2023-06-24T11:51:34;101439.41;;;30.07;49.28
71109;BME280;59614;51.012;-1.648;2023-06-24T11:54:01;101435.91;;;29.50;50.98
71109;BME280;59614;51.012;-1.648;2023-06-24T11:56:53;101425.72;;;29.63;50.97
71109;BME280;59614;51.012;-1.648;2023-06-24T11:59:21;101428.25;;;30.43;49.25
71109;BME280;59614;51.012;-1.648;2023-06-24T12:01:57;101431.81;;;31.90;45.91
71109;BME280;59614;51.012;-1.648;2023-06-24T12:04:30;101433.13;;;32.15;44.01
71109;BME280;59614;51.012;-1.648;2023-06-24T12:06:56;101433.00;;;31.25;45.57
71109;BME280;59614;51.012;-1.648;2023-06-24T12:09:22;101428.56;;;32.45;46.89
71109;BME280;59614;51.012;-1.648;2023-06-24T12:11:47;101423.09;;;32.65;45.20
71109;BME280;59614;51.012;-1.648;2023-06-24T12:14:12;101420.09;;;32.48;43.76
71109;BME280;59614;51.012;-1.648;2023-06-24T12:16:39;101415.81;;;33.03;45.63
71109;BME280;59614;51.012;-1.648;2023-06-24T12:19:08;101423.09;;;32.65;44.46
71109;BME280;59614;51.012;-1.648;2023-06-24T12:21:34;101416.81;;;31.34;47.21
71109;BME280;59614;51.012;-1.648;2023-06-24T12:24:04;101423.69;;;30.11;48.57
71109;BME280;59614;51.012;-1.648;2023-06-24T12:26:30;101428.72;;;29.71;50.53
71109;BME280;59614;51.012;-1.648;2023-06-24T12:28:56;101406.97;;;31.11;46.25
71109;BME280;59614;51.012;-1.648;2023-06-24T12:31:22;101410.41;;;31.95;45.70
71109;BME280;59614;51.012;-1.648;2023-06-24T12:33:48;101414.28;;;32.71;44.90
71109;BME280;59614;51.012;-1.648;2023-06-24T12:36:13;101407.63;;;33.69;42.45
71109;BME280;59614;51.012;-1.648;2023-06-24T12:38:38;101406.47;;;31.37;43.93
71109;BME280;59614;51.012;-1.648;2023-06-24T12:41:04;101405.84;;;30.72;44.72
71109;BME280;59614;51.012;-1.648;2023-06-24T12:43:29;101401.34;;;31.75;42.65
71109;BME280;59614;51.012;-1.648;2023-06-24T12:45:55;101407.25;;;32.00;42.37
71109;BME280;59614;51.012;-1.648;2023-06-24T12:48:21;101404.06;;;30.28;45.86
71109;BME280;59614;51.012;-1.648;2023-06-24T12:50:46;101400.81;;;31.50;42.59
71109;BME280;59614;51.012;-1.648;2023-06-24T12:53:12;101398.03;;;32.01;41.00
71109;BME280;59614;51.012;-1.648;2023-06-24T12:55:39;101395.47;;;32.09;39.92
71109;BME280;59614;51.012;-1.648;2023-06-24T12:58:05;101391.16;;;32.56;42.45
71109;BME280;59614;51.012;-1.648;2023-06-24T13:00:30;101391.91;;;32.18;41.33
71109;BME280;59614;51.012;-1.648;2023-06-24T13:02:55;101384.00;;;32.45;41.25